Time;durP1;ratioP1;P1;durP2;ratioP2;P2;SDS_P1;SDS_P2;PMS_P1;PMS_P2;Temp;Humidity;BMP_temperature;BMP_pressure;BME280_temperature;BME280_humidity;BME280_pressure;Samples;Min_cycle;Max_cycle;Signal;HPM_P1;HPM_P2
2022/06/23 00:00:20;;;;;;;17.10;12.83;;;;;;;19.43;100.00;97734.03;5035541;28;20293;-67
2022/06/23 00:02:46;;;;;;;17.80;12.27;;;;;;;19.42;100.00;97727.81;5035268;28;20641;-67
2022/06/23 00:05:17;;;;;;;19.73;12.10;;;;;;;19.41;100.00;97737.00;5035527;28;20206;-67
2022/06/23 00:07:47;;;;;;;12.87;11.33;;;;;;;19.43;100.00;97734.84;5035430;28;20190;-67
2022/06/23 00:10:25;;;;;;;17.37;11.97;;;;;;;19.36;100.00;97728.97;5035332;28;20196;-67
2022/06/23 00:12:52;;;;;;;17.47;12.93;;;;;;;19.38;100.00;97726.81;5035297;28;20196;-67
2022/06/23 00:15:29;;;;;;;16.23;13.70;;;;;;;19.29;100.00;97733.91;5035611;28;20237;-66
2022/06/23 00:17:58;;;;;;;20.03;13.97;;;;;;;19.30;100.00;97730.09;5035920;28;20309;-67
2022/06/23 00:20:33;;;;;;;22.67;15.13;;;;;;;19.30;100.00;97731.97;5034898;28;20209;-67
2022/06/23 00:23:07;;;;;;;20.00;16.50;;;;;;;19.26;100.00;97734.44;5035202;28;20189;-67
2022/06/23 00:25:48;;;;;;;21.70;15.60;;;;;;;19.25;100.00;97732.03;5035116;28;20280;-66
2022/06/23 00:28:25;;;;;;;25.80;18.73;;;;;;;19.17;100.00;97736.09;5035017;28;20222;-67
2022/06/23 00:30:56;;;;;;;21.70;16.57;;;;;;;19.16;100.00;97731.81;5017431;28;20277;-67
2022/06/23 00:33:38;;;;;;;19.80;16.37;;;;;;;19.13;100.00;97724.28;5034737;28;20300;-66
2022/06/23 00:36:35;;;;;;;21.13;15.73;;;;;;;19.12;100.00;97728.06;5017049;28;20190;-67
2022/06/23 00:39:04;;;;;;;19.90;16.27;;;;;;;19.04;100.00;97723.25;5033473;28;20225;-66
2022/06/23 00:41:37;;;;;;;21.43;16.50;;;;;;;18.98;100.00;97719.00;5034632;28;20304;-66
2022/06/23 00:44:16;;;;;;;20.43;15.23;;;;;;;18.89;100.00;97728.75;5017075;28;20186;-66
2022/06/23 00:46:49;;;;;;;20.47;15.07;;;;;;;18.92;100.00;97730.88;5034560;28;20198;-66
2022/06/23 00:49:29;;;;;;;20.50;15.97;;;;;;;18.98;100.00;97739.75;5034355;28;20233;-66
2022/06/23 00:52:01;;;;;;;22.17;15.67;;;;;;;18.96;100.00;97734.63;5034364;28;20273;-66
2022/06/23 00:54:33;;;;;;;21.37;16.43;;;;;;;18.94;100.00;97738.69;5034255;28;20214;-67
2022/06/23 00:57:14;;;;;;;23.37;16.10;;;;;;;18.94;100.00;97738.69;5034391;28;20206;-66
2022/06/23 00:59:57;;;;;;;21.20;14.63;;;;;;;18.95;100.00;97741.09;5033891;28;20791;-67
2022/06/23 01:02:34;;;;;;;18.60;15.00;;;;;;;18.85;100.00;97735.78;5033692;28;20202;-66
2022/06/23 01:05:23;;;;;;;18.43;15.60;;;;;;;18.85;100.00;97740.34;5001404;28;20289;-66
2022/06/23 01:08:04;;;;;;;19.80;15.90;;;;;;;18.82;100.00;97724.78;5033976;28;20190;-66
2022/06/23 01:10:36;;;;;;;20.70;16.10;;;;;;;18.85;100.00;97729.59;5017462;28;20273;-67
2022/06/23 01:13:15;;;;;;;16.17;14.43;;;;;;;18.78;100.00;97732.59;5016728;28;20284;-67
2022/06/23 01:15:47;;;;;;;21.93;15.10;;;;;;;18.78;100.00;97729.91;5034176;28;20197;-66
2022/06/23 01:18:21;;;;;;;20.50;15.73;;;;;;;18.76;100.00;97734.78;5016423;28;20325;-66
2022/06/23 01:21:25;;;;;;;21.93;16.57;;;;;;;18.78;100.00;97753.34;5033807;28;20194;-66
2022/06/23 01:24:04;;;;;;;25.77;16.80;;;;;;;18.74;100.00;97760.38;5033992;28;20208;-67
2022/06/23 01:26:39;;;;;;;25.40;18.50;;;;;;;18.71;100.00;97764.44;5034033;28;20223;-66
2022/06/23 01:29:21;;;;;;;21.10;17.43;;;;;;;18.72;100.00;97770.59;5033626;28;20226;-66
2022/06/23 01:31:53;;;;;;;21.47;17.00;;;;;;;18.69;100.00;97768.47;5016448;28;20193;-67
2022/06/23 01:34:27;;;;;;;17.13;15.33;;;;;;;18.69;100.00;97768.47;5033834;28;20214;-67
2022/06/23 01:37:18;;;;;;;18.53;15.73;;;;;;;18.68;100.00;97766.88;5001212;28;20201;-67
2022/06/23 01:39:53;;;;;;;18.50;15.70;;;;;;;18.66;100.00;97780.63;5033428;28;20228;-67
2022/06/23 01:42:39;;;;;;;23.37;17.13;;;;;;;18.66;100.00;97783.31;5033825;28;20276;-67
2022/06/23 01:45:33;;;;;;;22.33;17.57;;;;;;;18.70;100.00;97775.47;5033482;28;20208;-67
2022/06/23 01:48:51;;;;;;;21.03;15.73;;;;;;;18.59;100.00;97774.72;5016559;28;20616;-67
2022/06/23 01:51:28;;;;;;;19.07;15.23;;;;;;;18.59;100.00;97769.31;5018680;28;20689;-67
2022/06/23 01:54:11;;;;;;;19.47;14.93;;;;;;;18.53;100.00;97775.00;5033595;28;20297;-67
2022/06/23 01:56:48;;;;;;;20.20;15.00;;;;;;;18.56;100.00;97775.28;5033590;28;20189;-67
2022/06/23 01:59:24;;;;;;;19.87;14.67;;;;;;;18.58;100.00;97778.50;5033502;28;20229;-67
2022/06/23 02:01:54;;;;;;;22.00;14.67;;;;;;;18.58;100.00;97775.78;5033585;28;20202;-67
2022/06/23 02:04:41;;;;;;;15.80;13.23;;;;;;;18.56;100.00;97769.06;5033220;28;20695;-67
2022/06/23 02:07:24;;;;;;;17.03;14.00;;;;;;;18.53;100.00;97765.06;5033109;28;20209;-67
2022/06/23 02:09:59;;;;;;;14.87;13.00;;;;;;;18.54;100.00;97763.97;5033420;28;20321;-67
2022/06/23 02:12:51;;;;;;;21.87;13.00;;;;;;;18.48;100.00;97765.06;5033448;28;20276;-67
2022/06/23 02:15:29;;;;;;;15.33;12.63;;;;;;;18.47;100.00;97766.16;4979437;28;20225;-67
2022/06/23 02:18:12;;;;;;;16.70;12.50;;;;;;;18.40;100.00;97764.81;5033360;28;20676;-67
2022/06/23 02:20:57;;;;;;;14.23;10.63;;;;;;;18.44;100.00;97771.28;5015917;28;20186;-67
2022/06/23 02:23:55;;;;;;;13.93;9.70;;;;;;;18.42;100.00;97773.44;5034173;28;20208;-67
2022/06/23 02:26:57;;;;;;;14.70;9.73;;;;;;;18.34;100.00;97772.13;5016659;28;20599;-67
2022/06/23 02:29:29;;;;;;;18.43;9.00;;;;;;;18.23;100.00;97773.19;4999837;28;20775;-67
2022/06/23 02:32:03;;;;;;;14.80;9.93;;;;;;;18.23;100.00;97775.91;5015799;28;20194;-67
2022/06/23 02:34:35;;;;;;;13.23;9.07;;;;;;;18.18;100.00;97775.13;5015633;28;20224;-67
2022/06/23 02:37:26;;;;;;;15.93;9.00;;;;;;;18.17;100.00;97776.19;5015750;28;20190;-67
2022/06/23 02:39:57;;;;;;;11.07;8.00;;;;;;;18.12;100.00;97789.66;5032755;28;20230;-67
2022/06/23 02:42:37;;;;;;;12.10;7.37;;;;;;;18.04;100.00;97776.75;5016068;28;20197;-67
2022/06/23 02:45:46;;;;;;;16.10;7.90;;;;;;;18.05;100.00;97779.16;5033428;28;20190;-67
2022/06/23 02:48:14;;;;;;;13.83;7.77;;;;;;;17.94;100.00;97782.16;5012817;28;20246;-67
2022/06/23 02:50:55;;;;;;;11.47;7.13;;;;;;;17.95;100.00;97781.06;5032962;28;20242;-67
2022/06/23 02:53:40;;;;;;;12.63;7.43;;;;;;;17.92;100.00;97781.63;5033001;28;20205;-67
2022/06/23 02:56:39;;;;;;;11.57;7.90;;;;;;;17.89;100.00;97783.00;5032785;28;20197;-67
2022/06/23 02:59:26;;;;;;;13.77;8.03;;;;;;;17.89;100.00;97791.06;5032486;28;20763;-67
2022/06/23 03:02:01;;;;;;;10.37;7.37;;;;;;;17.98;100.00;97792.13;5032891;28;20649;-67
2022/06/23 03:04:45;;;;;;;11.13;7.93;;;;;;;17.98;100.00;97794.81;5003105;28;20193;-67
2022/06/23 03:07:18;;;;;;;13.30;7.97;;;;;;;17.95;100.00;97792.66;5019204;28;20679;-67
2022/06/23 03:10:08;;;;;;;12.93;7.43;;;;;;;17.95;100.00;97802.59;5018998;28;20236;-67
2022/06/23 03:13:07;;;;;;;9.80;7.23;;;;;;;17.97;100.00;97801.25;5037241;28;20197;-67
2022/06/23 03:15:41;;;;;;;15.50;7.47;;;;;;;17.97;100.00;97805.84;5036300;28;20224;-67
2022/06/23 03:18:22;;;;;;;12.33;7.27;;;;;;;17.91;100.00;97805.03;5036481;28;20320;-67
2022/06/23 03:21:03;;;;;;;14.17;7.57;;;;;;;17.90;100.00;97802.59;5036561;28;20193;-67
2022/06/23 03:23:50;;;;;;;14.87;7.20;;;;;;;17.86;100.00;97801.53;5035943;28;20633;-67
2022/06/23 03:26:42;;;;;;;10.43;6.63;;;;;;;17.90;100.00;97803.41;5018616;28;20217;-68
2022/06/23 03:29:32;;;;;;;12.77;6.17;;;;;;;17.93;100.00;97808.28;5035979;28;20257;-67
2022/06/23 03:32:11;;;;;;;14.57;6.63;;;;;;;17.95;100.00;97807.97;5035579;28;20205;-67
2022/06/23 03:34:44;;;;;;;12.23;6.47;;;;;;;17.88;100.00;97813.66;5035518;28;20316;-69
2022/06/23 03:37:18;;;;;;;11.40;6.43;;;;;;;17.95;100.00;97816.84;5035681;28;20285;-67
2022/06/23 03:42:55;;;;;;;12.40;6.47;;;;;;;17.98;100.00;97819.00;5021642;28;20176;-67
2022/06/23 03:45:36;;;;;;;12.43;6.03;;;;;;;17.94;100.00;97825.19;5018601;28;20277;-68
2022/06/23 03:48:12;;;;;;;12.03;6.50;;;;;;;17.95;100.00;97824.94;5035239;28;20784;-68
2022/06/23 03:50:47;;;;;;;11.13;5.77;;;;;;;17.94;100.00;97827.88;5035285;28;20220;-68
2022/06/23 03:53:23;;;;;;;11.20;5.87;;;;;;;17.94;100.00;97826.00;5035299;28;20651;-68
2022/06/23 03:56:10;;;;;;;11.77;6.17;;;;;;;18.00;100.00;97818.75;5035548;28;20581;-68
2022/06/23 03:58:46;;;;;;;10.23;6.00;;;;;;;17.99;100.00;97817.13;5035554;28;20655;-68
2022/06/23 04:01:14;;;;;;;13.20;6.60;;;;;;;18.03;100.00;97819.00;5035495;28;20272;-68
2022/06/23 04:04:03;;;;;;;11.73;6.53;;;;;;;18.09;100.00;97825.19;5034953;28;20304;-68
2022/06/23 04:06:33;;;;;;;11.43;6.90;;;;;;;18.09;100.00;97817.13;5036001;28;20278;-67
2022/06/23 04:09:17;;;;;;;14.07;6.73;;;;;;;18.09;100.00;97820.59;5035007;28;20225;-68
2022/06/23 04:12:03;;;;;;;11.17;6.17;;;;;;;18.13;100.00;97829.75;5034921;28;20722;-68
2022/06/23 04:14:38;;;;;;;14.10;6.87;;;;;;;18.13;100.00;97837.81;5033705;28;20571;-67
2022/06/23 04:17:25;;;;;;;11.80;6.40;;;;;;;18.14;100.00;97844.00;5035067;28;20736;-67
2022/06/23 04:20:01;;;;;;;17.10;6.70;;;;;;;18.16;100.00;97839.97;5035470;28;20696;-68
2022/06/23 04:22:48;;;;;;;12.23;6.33;;;;;;;18.15;100.00;97843.72;5034855;28;20281;-68
2022/06/23 04:25:24;;;;;;;13.60;6.60;;;;;;;18.12;100.00;97836.22;5034905;28;20266;-67
2022/06/23 04:27:56;;;;;;;14.87;6.80;;;;;;;18.16;100.00;97839.97;5034501;28;20706;-67
2022/06/23 04:30:29;;;;;;;14.03;7.10;;;;;;;18.07;100.00;97838.91;5017715;28;20194;-68
2022/06/23 04:32:59;;;;;;;12.00;6.90;;;;;;;18.10;100.00;97843.72;5034577;28;20206;-67
2022/06/23 04:35:33;;;;;;;14.23;6.70;;;;;;;18.14;100.00;97838.63;5017003;28;20237;-67
2022/06/23 04:38:15;;;;;;;12.70;6.80;;;;;;;18.16;100.00;97836.47;5016987;28;20304;-67
2022/06/23 04:40:45;;;;;;;12.37;6.57;;;;;;;18.11;100.00;97836.47;5034484;28;20256;-67
2022/06/23 04:43:30;;;;;;;8.60;6.27;;;;;;;18.14;100.00;97838.63;5034258;28;20214;-67
2022/06/23 04:46:04;;;;;;;15.23;6.77;;;;;;;18.17;100.00;97836.19;5034269;28;20187;-68
2022/06/23 04:48:44;;;;;;;11.80;7.20;;;;;;;18.13;100.00;97839.69;5034177;28;20233;-67
2022/06/23 04:51:26;;;;;;;12.20;6.80;;;;;;;18.11;100.00;97834.59;5034239;28;20292;-68
2022/06/23 04:53:53;;;;;;;19.27;8.43;;;;;;;18.09;100.00;97844.03;5034191;28;20190;-68
2022/06/23 04:56:30;;;;;;;13.93;8.47;;;;;;;18.03;100.00;97843.22;5034125;28;20297;-67
2022/06/23 04:59:07;;;;;;;12.70;6.40;;;;;;;18.11;100.00;97837.28;5016463;28;20562;-67
2022/06/23 05:01:40;;;;;;;16.53;7.30;;;;;;;18.19;100.00;97842.09;5033803;28;20352;-67
2022/06/23 05:04:15;;;;;;;15.30;7.50;;;;;;;18.27;100.00;97846.94;5034213;28;20190;-68
2022/06/23 05:06:45;;;;;;;13.57;7.00;;;;;;;18.53;100.00;97850.38;5033652;28;20281;-67
2022/06/23 05:09:15;;;;;;;14.90;6.90;;;;;;;18.82;100.00;97844.06;5033044;28;20780;-67
2022/06/23 05:11:59;;;;;;;14.47;6.83;;;;;;;19.18;100.00;97845.50;5033603;28;20601;-67
2022/06/23 05:14:32;;;;;;;12.23;7.17;;;;;;;19.58;100.00;97852.53;5033039;28;20669;-67
2022/06/23 05:17:22;;;;;;;14.03;7.60;;;;;;;20.01;100.00;97846.25;5033309;28;20300;-68
2022/06/23 05:19:54;;;;;;;13.10;7.17;;;;;;;20.35;100.00;97844.31;5033274;28;20229;-67
2022/06/23 05:22:41;;;;;;;13.97;8.00;;;;;;;20.56;100.00;97843.03;5016351;28;20197;-68
2022/06/23 05:25:28;;;;;;;11.63;6.70;;;;;;;20.89;100.00;97844.00;5016975;28;20190;-68
2022/06/23 05:27:55;;;;;;;13.20;7.17;;;;;;;20.95;100.00;97854.47;5017967;28;20321;-68
2022/06/23 05:30:40;;;;;;;12.73;7.73;;;;;;;20.88;100.00;97845.88;5033098;28;20293;-67
2022/06/23 05:33:20;;;;;;;14.47;9.43;;;;;;;20.62;100.00;97841.06;5032949;28;20190;-68
2022/06/23 05:35:51;;;;;;;15.10;7.90;;;;;;;20.38;100.00;97848.34;5033501;28;20304;-68
2022/06/23 05:38:55;;;;;;;15.33;7.37;;;;;;;20.29;100.00;97855.47;5032675;28;20316;-68
2022/06/23 05:41:35;;;;;;;12.97;7.50;;;;;;;20.19;100.00;97855.56;5032775;28;20208;-68
2022/06/23 05:44:08;;;;;;;15.03;8.17;;;;;;;20.22;100.00;97852.31;5032789;28;20288;-68
2022/06/23 05:46:40;;;;;;;15.37;8.17;;;;;;;20.25;100.00;97846.34;5032973;28;20202;-68
2022/06/23 05:49:27;;;;;;;14.27;9.10;;;;;;;20.17;100.00;97845.03;5033070;28;20274;-68
2022/06/23 05:52:02;;;;;;;14.63;7.83;;;;;;;20.32;100.00;97844.91;5032659;28;20716;-68
2022/06/23 05:54:39;;;;;;;18.93;8.13;;;;;;;20.31;100.00;97846.00;5032765;28;20305;-68
2022/06/23 05:57:31;;;;;;;13.77;7.53;;;;;;;20.31;100.00;97845.19;5032115;28;20194;-68
2022/06/23 06:00:14;;;;;;;17.50;7.67;;;;;;;20.27;100.00;97850.38;5032678;28;20224;-68
2022/06/23 06:02:51;;;;;;;13.00;8.07;;;;;;;20.34;100.00;97847.34;5032520;28;20194;-67
2022/06/23 06:05:39;;;;;;;12.80;8.10;;;;;;;20.35;100.00;97848.94;5032178;28;20277;-68
2022/06/23 06:08:12;;;;;;;14.03;8.40;;;;;;;20.67;100.00;97846.41;5032695;28;20633;-67
2022/06/23 06:10:39;;;;;;;13.53;8.07;;;;;;;20.36;100.00;97847.84;5033036;28;20201;-68
2022/06/23 06:13:14;;;;;;;13.50;8.40;;;;;;;20.50;100.00;97838.78;5032411;28;20648;-68
2022/06/23 06:15:48;;;;;;;14.23;8.00;;;;;;;20.50;100.00;97851.47;5032673;28;20580;-67
2022/06/23 06:18:25;;;;;;;15.37;7.73;;;;;;;20.64;100.00;97863.19;5032820;28;20229;-68
2022/06/23 06:20:54;;;;;;;16.73;8.63;;;;;;;20.55;100.00;97857.63;5032592;28;20281;-68
2022/06/23 06:23:29;;;;;;;15.23;7.67;;;;;;;20.51;100.00;97861.16;5032833;28;20296;-68
2022/06/23 06:25:56;;;;;;;13.83;7.47;;;;;;;20.55;100.00;97859.50;5033003;28;20201;-68
2022/06/23 06:28:31;;;;;;;14.47;7.30;;;;;;;20.61;100.00;97855.69;5032502;28;20233;-67
2022/06/23 06:31:14;;;;;;;13.13;7.37;;;;;;;20.56;100.00;97864.63;5032078;28;20719;-67
2022/06/23 06:34:00;;;;;;;11.67;8.50;;;;;;;20.81;100.00;97856.25;5012996;28;20196;-69
2022/06/23 06:36:38;;;;;;;15.13;8.83;;;;;;;20.88;100.00;97853.97;5030492;28;20213;-69
2022/06/23 06:39:08;;;;;;;14.23;8.53;;;;;;;20.84;100.00;97865.66;5034010;28;20222;-69
2022/06/23 06:41:35;;;;;;;18.27;14.27;;;;;;;20.89;100.00;97865.59;5034264;28;20305;-69
2022/06/23 06:44:02;;;;;;;16.50;10.10;;;;;;;20.85;100.00;97872.69;5034260;28;20293;-69
2022/06/23 06:46:30;;;;;;;13.40;10.10;;;;;;;20.89;100.00;97873.72;5034826;28;20208;-69
2022/06/23 06:48:58;;;;;;;13.40;7.33;;;;;;;21.08;100.00;97869.16;5035029;28;20237;-69
2022/06/23 06:51:29;;;;;;;12.40;7.37;;;;;;;21.17;100.00;97876.34;5018375;28;20296;-69
2022/06/23 06:54:02;;;;;;;17.23;8.87;;;;;;;21.16;100.00;97885.53;5036518;28;20197;-69
2022/06/23 06:56:41;;;;;;;16.87;8.80;;;;;;;21.26;100.00;97884.59;5019087;28;20214;-68
2022/06/23 06:59:25;;;;;;;17.43;9.83;;;;;;;21.21;100.00;97880.06;5036489;28;20284;-68
2022/06/23 07:02:00;;;;;;;12.27;7.93;;;;;;;21.32;100.00;97878.84;5036317;28;20277;-69
2022/06/23 07:04:32;;;;;;;10.00;8.00;;;;;;;21.40;100.00;97880.09;5036324;28;20280;-68
2022/06/23 07:07:14;;;;;;;19.53;8.33;;;;;;;21.44;100.00;97881.09;5035839;28;20633;-69
2022/06/23 07:09:57;;;;;;;16.27;10.53;;;;;;;21.61;100.00;97881.41;5036192;28;20253;-69
2022/06/23 07:12:43;;;;;;;17.93;11.90;;;;;;;21.63;100.00;97876.50;5036619;28;20285;-68
2022/06/23 07:15:20;;;;;;;15.77;8.17;;;;;;;21.61;100.00;97871.38;5035935;28;20300;-69
2022/06/23 07:18:17;;;;;;;14.17;7.50;;;;;;;21.63;100.00;97881.91;5019351;28;20528;-69
2022/06/23 07:21:11;;;;;;;9.00;5.60;;;;;;;21.92;95.74;97885.25;5035840;28;20214;-68
2022/06/23 07:23:51;;;;;;;11.67;6.30;;;;;;;21.96;95.76;97886.28;5035618;28;20548;-69
2022/06/23 07:26:34;;;;;;;10.83;5.50;;;;;;;21.84;98.14;97875.91;5035693;28;20186;-69
2022/06/23 07:29:16;;;;;;;33.33;29.37;;;;;;;22.10;92.08;97879.00;5035726;28;20304;-69
2022/06/23 07:32:03;;;;;;;23.23;15.83;;;;;;;22.06;89.94;97872.59;5035702;28;20289;-69
2022/06/23 07:34:36;;;;;;;10.43;5.90;;;;;;;21.94;94.02;97864.13;5036119;28;20186;-69
2022/06/23 07:37:22;;;;;;;8.43;3.53;;;;;;;22.12;87.00;97865.97;5018446;28;20200;-68
2022/06/23 07:39:53;;;;;;;9.05;4.28;;;;;;;22.36;87.09;97874.75;5035295;28;20230;-69
2022/06/23 07:42:50;;;;;;;9.38;5.38;;;;;;;22.51;86.93;97872.59;5035574;28;20186;-69
2022/06/23 07:45:26;;;;;;;8.93;4.47;;;;;;;22.37;89.34;97871.75;5035386;28;20206;-69
2022/06/23 07:47:53;;;;;;;9.82;4.63;;;;;;;22.47;85.26;97857.25;5034978;28;20652;-69
2022/06/23 07:50:20;;;;;;;12.40;6.15;;;;;;;22.58;85.46;97858.66;5035114;28;20224;-69
2022/06/23 07:52:48;;;;;;;11.47;7.87;;;;;;;22.56;86.99;97848.13;5035538;28;20284;-69
2022/06/23 07:55:42;;;;;;;8.38;4.32;;;;;;;22.76;85.01;97855.06;5035135;28;20276;-68
2022/06/23 07:58:09;;;;;;;10.63;4.07;;;;;;;22.92;85.35;97850.94;5035120;28;20247;-68
2022/06/23 08:00:42;;;;;;;15.45;8.57;;;;;;;23.01;84.08;97858.03;5035248;28;20212;-69
2022/06/23 08:03:38;;;;;;;15.98;6.18;;;;;;;23.01;82.03;97852.63;5017563;28;20641;-68
2022/06/23 08:06:09;;;;;;;10.43;4.22;;;;;;;23.05;80.93;97847.38;5020724;28;20621;-69
2022/06/23 08:08:38;;;;;;;9.77;4.47;;;;;;;23.09;79.54;97848.38;5035441;28;20313;-69
2022/06/23 08:13:58;;;;;;;9.75;4.00;;;;;;;23.22;79.69;97837.56;5035128;28;20236;-69
2022/06/23 08:19:39;;;;;;;19.80;14.88;;;;;;;23.13;80.23;97833.13;5034852;28;20255;-69
2022/06/23 08:22:12;;;;;;;10.90;4.55;;;;;;;23.42;82.14;97839.81;5034503;28;20190;-69
2022/06/23 08:24:39;;;;;;;16.35;10.43;;;;;;;23.35;75.64;97838.63;5017294;28;20200;-69
2022/06/23 08:27:11;;;;;;;8.38;3.95;;;;;;;23.45;75.29;97843.81;5034679;28;20297;-69
2022/06/23 08:29:43;;;;;;;16.73;7.38;;;;;;;23.52;74.00;97841.50;5034271;28;20260;-69
2022/06/23 08:32:10;;;;;;;10.85;5.18;;;;;;;23.63;72.92;97832.81;5017620;28;20201;-69
2022/06/23 08:34:40;;;;;;;10.50;3.40;;;;;;;23.70;69.55;97843.22;5034717;28;20210;-68
2022/06/23 08:37:15;;;;;;;13.43;6.03;;;;;;;23.73;72.12;97831.75;5034782;28;20230;-69
2022/06/23 08:40:01;;;;;;;11.13;3.60;;;;;;;23.93;70.36;97825.84;5017522;28;20324;-69
2022/06/23 08:42:42;;;;;;;11.05;5.90;;;;;;;23.79;71.78;97817.72;5017121;28;20221;-69
2022/06/23 08:45:19;;;;;;;12.32;6.03;;;;;;;23.87;71.74;97821.63;5033979;28;20272;-69
2022/06/23 08:47:51;;;;;;;10.35;4.10;;;;;;;24.05;71.00;97820.63;5034364;28;20214;-69
2022/06/23 08:50:36;;;;;;;10.38;3.78;;;;;;;24.21;71.69;97819.16;5033850;28;20304;-69
2022/06/23 08:53:18;;;;;;;11.65;3.28;;;;;;;24.27;69.03;97817.88;5033814;28;20296;-68
2022/06/23 08:55:59;;;;;;;7.25;3.47;;;;;;;24.29;70.47;97816.47;5034267;28;20246;-69
2022/06/23 08:58:46;;;;;;;8.18;3.70;;;;;;;24.42;69.57;97812.06;5033932;28;20253;-69
2022/06/23 09:01:51;;;;;;;6.32;3.45;;;;;;;24.42;71.48;97801.19;5033404;28;20194;-69
2022/06/23 09:04:59;;;;;;;11.20;4.10;;;;;;;24.48;71.15;97800.75;4973089;28;20339;-69
2022/06/23 09:07:47;;;;;;;9.23;3.85;;;;;;;24.49;69.26;97806.97;4993638;28;20301;-69
2022/06/23 09:10:26;;;;;;;9.82;4.10;;;;;;;24.78;69.87;97799.13;5033948;28;20222;-69
2022/06/23 09:13:22;;;;;;;9.88;5.07;;;;;;;24.63;67.21;97800.34;5034409;28;20261;-69
2022/06/23 09:16:20;;;;;;;10.75;4.55;;;;;;;24.61;68.21;97801.78;5033743;28;20242;-69
2022/06/23 09:18:55;;;;;;;10.93;6.25;;;;;;;24.72;66.93;97792.19;5033463;28;20313;-69
2022/06/23 09:21:40;;;;;;;37.20;30.67;;;;;;;24.78;65.22;97794.47;5033609;28;20300;-69
2022/06/23 09:24:22;;;;;;;10.18;3.75;;;;;;;24.99;64.99;97794.66;5033765;28;20232;-68
2022/06/23 09:27:02;;;;;;;13.10;5.35;;;;;;;25.29;63.60;97791.06;5033341;28;20305;-70
2022/06/23 09:29:59;;;;;;;12.65;5.75;;;;;;;25.25;62.36;97788.16;5034086;28;20316;-69
2022/06/23 09:32:40;;;;;;;20.95;13.93;;;;;;;25.01;64.43;97793.22;5033280;28;20222;-70
2022/06/23 09:35:47;;;;;;;30.25;26.65;;;;;;;25.23;64.48;97784.94;5033380;28;20213;-69
2022/06/23 09:38:43;;;;;;;25.00;20.15;;;;;;;25.48;62.02;97780.63;5020087;28;20221;-69
2022/06/23 09:41:23;;;;;;;15.57;10.85;;;;;;;25.48;62.68;97783.38;5033241;28;20277;-69
2022/06/23 09:44:26;;;;;;;11.45;6.20;;;;;;;24.93;62.45;97774.19;5033090;28;20186;-69
2022/06/23 09:47:07;;;;;;;6.60;3.08;;;;;;;25.12;62.81;97778.22;5033309;28;20608;-69
2022/06/23 09:49:42;;;;;;;8.23;3.60;;;;;;;25.77;61.22;97767.13;5033135;28;20324;-70
2022/06/23 09:52:46;;;;;;;10.55;3.75;;;;;;;26.17;61.65;97777.50;5032861;28;20200;-70
2022/06/23 09:55:46;;;;;;;8.32;4.63;;;;;;;26.01;62.19;97770.19;5033346;28;20291;-69
2022/06/23 09:58:16;;;;;;;22.05;16.77;;;;;;;25.75;60.28;97764.75;5032654;28;20274;-69
2022/06/23 10:00:57;;;;;;;10.75;4.88;;;;;;;25.80;62.06;97761.88;5032490;28;20292;-69
2022/06/23 10:03:48;;;;;;;10.40;5.50;;;;;;;25.99;60.37;97764.22;5033048;28;20194;-69
2022/06/23 10:06:35;;;;;;;10.20;3.47;;;;;;;26.03;61.14;97754.28;5033071;28;20277;-69
2022/06/23 10:09:22;;;;;;;12.02;5.68;;;;;;;25.54;60.46;97757.56;5033011;28;20229;-68
2022/06/23 10:11:54;;;;;;;10.15;4.35;;;;;;;25.12;61.03;97756.44;5034528;28;20225;-69
2022/06/23 10:14:30;;;;;;;13.77;6.15;;;;;;;25.69;62.15;97754.38;5036848;28;20641;-69
2022/06/23 10:17:10;;;;;;;9.48;5.55;;;;;;;26.10;58.65;97754.59;5037004;28;20304;-68
2022/06/23 10:19:53;;;;;;;10.73;7.78;;;;;;;26.47;58.22;97751.06;5036823;28;20720;-69
2022/06/23 10:22:25;;;;;;;8.57;3.78;;;;;;;26.81;58.01;97753.63;5036765;28;20597;-68
2022/06/23 10:25:47;;;;;;;10.65;3.70;;;;;;;26.71;60.42;97759.47;5036731;28;20687;-69
2022/06/23 10:28:47;;;;;;;12.10;3.83;;;;;;;26.79;58.49;97755.91;5013425;28;20758;-69
2022/06/23 10:31:29;;;;;;;11.05;5.40;;;;;;;26.66;57.83;97754.22;5037172;28;20369;-69
2022/06/23 10:34:24;;;;;;;12.38;5.38;;;;;;;26.54;56.44;97752.16;5036992;28;20216;-67
2022/06/23 10:37:06;;;;;;;10.50;5.00;;;;;;;26.31;57.53;97744.56;5036405;28;20305;-67
2022/06/23 10:40:11;;;;;;;9.43;5.28;;;;;;;26.25;57.43;97740.44;5036650;28;20325;-69
2022/06/23 10:43:03;;;;;;;7.88;3.33;;;;;;;26.59;56.00;97734.84;5027113;28;20297;-67
2022/06/23 10:45:57;;;;;;;7.82;3.45;;;;;;;26.58;57.14;97733.22;5036145;28;20280;-69
2022/06/23 10:48:36;;;;;;;7.10;3.85;;;;;;;26.77;57.18;97734.41;5035942;28;20316;-69
2022/06/23 10:51:16;;;;;;;9.40;3.17;;;;;;;26.72;54.88;97737.31;5036618;28;20190;-67
2022/06/23 10:54:07;;;;;;;8.68;4.95;;;;;;;27.07;54.54;97732.44;5036909;28;20194;-67
2022/06/23 10:56:49;;;;;;;24.80;19.30;;;;;;;26.89;52.78;97731.75;5036782;28;20236;-71
2022/06/23 10:59:42;;;;;;;33.08;29.35;;;;;;;26.66;54.40;97726.94;5036679;28;20361;-71
2022/06/23 11:02:46;;;;;;;12.63;3.70;;;;;;;26.19;54.62;97714.50;5037140;28;20277;-71
2022/06/23 11:05:54;;;;;;;5.38;3.15;;;;;;;26.78;54.43;97708.72;5036239;28;20593;-71
2022/06/23 11:08:27;;;;;;;10.32;3.58;;;;;;;27.38;51.61;97708.28;5003251;28;20304;-71
2022/06/23 11:11:00;;;;;;;11.77;5.93;;;;;;;27.38;47.90;97702.81;5036736;28;20280;-71
2022/06/23 11:14:02;;;;;;;10.02;4.13;;;;;;;26.87;46.89;97687.63;5036337;28;20688;-70
2022/06/23 11:16:45;;;;;;;7.50;4.80;;;;;;;27.06;50.12;97687.19;5036101;28;20301;-70
2022/06/23 11:19:28;;;;;;;8.95;3.85;;;;;;;27.35;50.32;97681.63;5035848;28;20240;-70
2022/06/23 11:22:27;;;;;;;8.82;3.20;;;;;;;27.31;47.19;97683.44;5035806;28;20288;-70
2022/06/23 11:25:05;;;;;;;13.20;3.20;;;;;;;27.31;47.87;97669.78;5023336;28;20210;-70
2022/06/23 11:27:56;;;;;;;7.75;3.28;;;;;;;27.51;47.51;97679.06;5035904;28;20343;-72
2022/06/23 11:30:39;;;;;;;8.88;2.92;;;;;;;27.35;47.92;97672.66;5035395;28;20194;-70
2022/06/23 11:33:23;;;;;;;21.75;18.35;;;;;;;27.36;48.20;97675.06;5035465;28;20190;-70
2022/06/23 11:36:19;;;;;;;10.77;4.00;;;;;;;27.71;42.47;97680.97;5035976;28;20316;-70
2022/06/23 11:39:14;;;;;;;18.45;13.75;;;;;;;27.62;44.08;97672.84;5035875;28;20321;-70
2022/06/23 11:41:52;;;;;;;13.25;9.90;;;;;;;27.31;45.26;97674.47;5036337;28;20281;-70
2022/06/23 11:44:47;;;;;;;5.78;2.50;;;;;;;27.45;44.42;97662.09;5035462;28;20210;-70
2022/06/23 11:47:14;;;;;;;8.73;2.78;;;;;;;27.65;45.16;97668.63;5035488;28;20633;-70
2022/06/23 11:50:06;;;;;;;7.72;3.63;;;;;;;27.78;45.19;97668.34;5035627;28;20653;-70
2022/06/23 11:52:58;;;;;;;19.80;15.65;;;;;;;27.54;44.71;97664.75;5036174;28;20196;-70
2022/06/23 11:55:39;;;;;;;8.48;3.90;;;;;;;27.47;44.25;97673.50;5035492;28;20281;-70
2022/06/23 11:58:18;;;;;;;12.75;7.90;;;;;;;27.62;45.52;97661.91;5035479;28;20321;-70
2022/06/23 12:01:02;;;;;;;8.82;3.28;;;;;;;27.47;43.61;97664.50;5035884;28;20534;-70
2022/06/23 12:03:47;;;;;;;12.27;3.45;;;;;;;27.68;46.31;97663.31;5035431;28;20281;-70
2022/06/23 12:06:34;;;;;;;8.95;3.75;;;;;;;27.79;43.86;97650.81;5035470;28;20281;-70
2022/06/23 12:09:28;;;;;;;14.48;3.53;;;;;;;28.16;44.82;97648.94;5035238;28;20321;-72
2022/06/23 12:11:57;;;;;;;7.80;3.95;;;;;;;28.26;42.59;97652.00;5034985;28;20313;-70
2022/06/23 12:14:25;;;;;;;9.75;2.92;;;;;;;28.31;41.54;97653.72;5035211;28;20289;-70
2022/06/23 12:17:01;;;;;;;8.43;3.55;;;;;;;28.14;41.62;97649.28;5035948;28;20221;-70
2022/06/23 12:19:45;;;;;;;12.32;6.82;;;;;;;27.97;43.90;97649.50;5035291;28;20312;-70
2022/06/23 12:22:22;;;;;;;10.82;4.32;;;;;;;27.82;43.22;97644.69;5035349;28;20280;-70
2022/06/23 12:25:00;;;;;;;8.88;3.15;;;;;;;27.63;42.85;97638.94;5035667;28;20194;-70
2022/06/23 12:27:30;;;;;;;7.65;3.22;;;;;;;27.98;43.20;97640.16;5035256;28;20187;-70
2022/06/23 12:30:08;;;;;;;47.22;42.28;;;;;;;27.96;43.69;97636.97;5034733;28;20316;-70